sensor_id;sensor_type;location;lat;lon;timestamp;pressure;altitude;pressure_sealevel;temperature
13219;BMP180;6674;49.152;11.918;2023-04-06T00:00:02;96241.31;;;3.54
13219;BMP180;6674;49.152;11.918;2023-04-06T00:02:30;96251.84;;;3.51
13219;BMP180;6674;49.152;11.918;2023-04-06T00:04:57;96245.31;;;3.48
13219;BMP180;6674;49.152;11.918;2023-04-06T00:07:23;96239.25;;;3.49
13219;BMP180;6674;49.152;11.918;2023-04-06T00:09:50;96241.19;;;3.47
13219;BMP180;6674;49.152;11.918;2023-04-06T00:12:17;96242.31;;;3.45
13219;BMP180;6674;49.152;11.918;2023-04-06T00:14:44;96237.69;;;3.41
13219;BMP180;6674;49.152;11.918;2023-04-06T00:17:12;96247.09;;;3.40
13219;BMP180;6674;49.152;11.918;2023-04-06T00:19:39;96244.25;;;3.35
13219;BMP180;6674;49.152;11.918;2023-04-06T00:22:05;96248.56;;;3.35
13219;BMP180;6674;49.152;11.918;2023-04-06T00:24:32;96247.13;;;3.32
13219;BMP180;6674;49.152;11.918;2023-04-06T00:26:59;96240.16;;;3.26
13219;BMP180;6674;49.152;11.918;2023-04-06T00:29:26;96239.66;;;3.23
13219;BMP180;6674;49.152;11.918;2023-04-06T00:31:54;96235.38;;;3.23
13219;BMP180;6674;49.152;11.918;2023-04-06T00:34:22;96243.66;;;3.25
13219;BMP180;6674;49.152;11.918;2023-04-06T00:36:48;96239.50;;;3.24
13219;BMP180;6674;49.152;11.918;2023-04-06T00:39:15;96234.25;;;3.26
13219;BMP180;6674;49.152;11.918;2023-04-06T00:41:46;96225.81;;;3.25
13219;BMP180;6674;49.152;11.918;2023-04-06T00:44:12;96234.56;;;3.23
13219;BMP180;6674;49.152;11.918;2023-04-06T00:46:39;96234.09;;;3.19
13219;BMP180;6674;49.152;11.918;2023-04-06T00:49:06;96238.56;;;3.17
13219;BMP180;6674;49.152;11.918;2023-04-06T00:51:34;96235.56;;;3.14
13219;BMP180;6674;49.152;11.918;2023-04-06T00:54:01;96231.56;;;3.11
13219;BMP180;6674;49.152;11.918;2023-04-06T00:56:28;96239.41;;;3.10
13219;BMP180;6674;49.152;11.918;2023-04-06T00:58:56;96230.16;;;3.09
13219;BMP180;6674;49.152;11.918;2023-04-06T01:01:23;96235.25;;;3.09
13219;BMP180;6674;49.152;11.918;2023-04-06T01:03:50;96229.38;;;3.08
13219;BMP180;6674;49.152;11.918;2023-04-06T01:06:17;96227.78;;;3.07
13219;BMP180;6674;49.152;11.918;2023-04-06T01:08:46;96223.63;;;3.06
13219;BMP180;6674;49.152;11.918;2023-04-06T01:11:12;96222.50;;;3.09
13219;BMP180;6674;49.152;11.918;2023-04-06T01:13:39;96225.84;;;3.09
13219;BMP180;6674;49.152;11.918;2023-04-06T01:16:06;96224.56;;;3.13
13219;BMP180;6674;49.152;11.918;2023-04-06T01:18:33;96226.97;;;3.15
13219;BMP180;6674;49.152;11.918;2023-04-06T01:21:00;96224.25;;;3.16
13219;BMP180;6674;49.152;11.918;2023-04-06T01:23:28;96223.78;;;3.05
13219;BMP180;6674;49.152;11.918;2023-04-06T01:25:55;96226.84;;;3.00
13219;BMP180;6674;49.152;11.918;2023-04-06T01:28:21;96231.31;;;2.99
13219;BMP180;6674;49.152;11.918;2023-04-06T01:30:48;96223.31;;;2.94
13219;BMP180;6674;49.152;11.918;2023-04-06T01:33:15;96227.16;;;2.90
13219;BMP180;6674;49.152;11.918;2023-04-06T01:35:41;96225.56;;;2.89
13219;BMP180;6674;49.152;11.918;2023-04-06T01:38:08;96226.06;;;2.84
13219;BMP180;6674;49.152;11.918;2023-04-06T01:40:36;96221.13;;;2.83
13219;BMP180;6674;49.152;11.918;2023-04-06T01:43:04;96230.50;;;2.82
13219;BMP180;6674;49.152;11.918;2023-04-06T01:45:30;96215.41;;;2.81
13219;BMP180;6674;49.152;11.918;2023-04-06T01:47:57;96219.84;;;2.79
13219;BMP180;6674;49.152;11.918;2023-04-06T01:50:24;96224.63;;;2.74
13219;BMP180;6674;49.152;11.918;2023-04-06T01:52:50;96219.72;;;2.72
13219;BMP180;6674;49.152;11.918;2023-04-06T01:55:17;96213.81;;;2.72
13219;BMP180;6674;49.152;11.918;2023-04-06T01:57:45;96212.88;;;2.73
13219;BMP180;6674;49.152;11.918;2023-04-06T02:00:13;96215.09;;;2.76
13219;BMP180;6674;49.152;11.918;2023-04-06T02:02:39;96212.38;;;2.77
13219;BMP180;6674;49.152;11.918;2023-04-06T02:05:07;96216.69;;;2.77
13219;BMP180;6674;49.152;11.918;2023-04-06T02:07:34;96215.44;;;2.73
13219;BMP180;6674;49.152;11.918;2023-04-06T02:10:01;96216.53;;;2.70
13219;BMP180;6674;49.152;11.918;2023-04-06T02:12:28;96214.47;;;2.66
13219;BMP180;6674;49.152;11.918;2023-04-06T02:14:56;96221.78;;;2.61
13219;BMP180;6674;49.152;11.918;2023-04-06T02:17:23;96217.03;;;2.58
13219;BMP180;6674;49.152;11.918;2023-04-06T02:19:49;96214.31;;;2.59
13219;BMP180;6674;49.152;11.918;2023-04-06T02:22:16;96217.97;;;2.57
13219;BMP180;6674;49.152;11.918;2023-04-06T02:24:43;96215.44;;;2.57
13219;BMP180;6674;49.152;11.918;2023-04-06T02:27:10;96212.91;;;2.57
13219;BMP180;6674;49.152;11.918;2023-04-06T02:29:37;96211.94;;;2.58
13219;BMP180;6674;49.152;11.918;2023-04-06T02:32:05;96213.69;;;2.57
13219;BMP180;6674;49.152;11.918;2023-04-06T02:34:32;96212.75;;;2.58
13219;BMP180;6674;49.152;11.918;2023-04-06T02:36:59;96210.34;;;2.57
13219;BMP180;6674;49.152;11.918;2023-04-06T02:39:26;96211.94;;;2.58
13219;BMP180;6674;49.152;11.918;2023-04-06T02:41:52;96208.75;;;2.56
13219;BMP180;6674;49.152;11.918;2023-04-06T02:44:19;96204.00;;;2.53
13219;BMP180;6674;49.152;11.918;2023-04-06T02:46:45;96215.28;;;2.51
13219;BMP180;6674;49.152;11.918;2023-04-06T02:49:14;96210.50;;;2.48
13219;BMP180;6674;49.152;11.918;2023-04-06T02:51:40;96207.50;;;2.44
13219;BMP180;6674;49.152;11.918;2023-04-06T02:54:07;96207.81;;;2.41
13219;BMP180;6674;49.152;11.918;2023-04-06T02:56:34;96197.16;;;2.38
13219;BMP180;6674;49.152;11.918;2023-04-06T02:59:01;96207.50;;;2.36
13219;BMP180;6674;49.152;11.918;2023-04-06T03:01:27;96199.84;;;2.36
13219;BMP180;6674;49.152;11.918;2023-04-06T03:03:54;96198.91;;;2.37
13219;BMP180;6674;49.152;11.918;2023-04-06T03:06:22;96204.00;;;2.37
13219;BMP180;6674;49.152;11.918;2023-04-06T03:08:48;96201.94;;;2.33
13219;BMP180;6674;49.152;11.918;2023-04-06T03:11:15;96209.09;;;2.29
13219;BMP180;6674;49.152;11.918;2023-04-06T03:13:42;96207.81;;;2.33
13219;BMP180;6674;49.152;11.918;2023-04-06T03:16:08;96208.78;;;2.32
13219;BMP180;6674;49.152;11.918;2023-04-06T03:18:36;96205.75;;;2.29
13219;BMP180;6674;49.152;11.918;2023-04-06T03:21:03;96201.75;;;2.26
13219;BMP180;6674;49.152;11.918;2023-04-06T03:23:31;96199.69;;;2.22
13219;BMP180;6674;49.152;11.918;2023-04-06T03:25:57;96209.53;;;2.09
13219;BMP180;6674;49.152;11.918;2023-04-06T03:28:24;96215.75;;;2.07
13219;BMP180;6674;49.152;11.918;2023-04-06T03:30:51;96209.38;;;2.03
13219;BMP180;6674;49.152;11.918;2023-04-06T03:33:18;96212.09;;;2.01
13219;BMP180;6674;49.152;11.918;2023-04-06T03:35:45;96215.28;;;2.03
13219;BMP180;6674;49.152;11.918;2023-04-06T03:38:12;96210.03;;;1.97
13219;BMP180;6674;49.152;11.918;2023-04-06T03:40:40;96215.41;;;1.94
13219;BMP180;6674;49.152;11.918;2023-04-06T03:43:07;96217.47;;;1.90
13219;BMP180;6674;49.152;11.918;2023-04-06T03:45:34;96223.97;;;1.85
13219;BMP180;6674;49.152;11.918;2023-04-06T03:48:01;96222.09;;;1.87
13219;BMP180;6674;49.152;11.918;2023-04-06T03:50:27;96223.63;;;1.80
13219;BMP180;6674;49.152;11.918;2023-04-06T03:52:54;96235.41;;;1.81
13219;BMP180;6674;49.152;11.918;2023-04-06T03:55:21;96228.88;;;1.78
13219;BMP180;6674;49.152;11.918;2023-04-06T03:57:49;96233.97;;;1.78
13219;BMP180;6674;49.152;11.918;2023-04-06T04:00:16;96234.94;;;1.77
13219;BMP180;6674;49.152;11.918;2023-04-06T04:02:42;96234.47;;;1.74
13219;BMP180;6674;49.152;11.918;2023-04-06T04:05:09;96243.34;;;1.78
13219;BMP180;6674;49.152;11.918;2023-04-06T04:07:36;96245.25;;;1.76
13219;BMP180;6674;49.152;11.918;2023-04-06T04:10:03;96248.09;;;1.73
13219;BMP180;6674;49.152;11.918;2023-04-06T04:12:29;96237.94;;;1.73
13219;BMP180;6674;49.152;11.918;2023-04-06T04:14:57;96250.81;;;1.71
13219;BMP180;6674;49.152;11.918;2023-04-06T04:17:24;96247.16;;;1.74
13219;BMP180;6674;49.152;11.918;2023-04-06T04:19:51;96256.03;;;1.70
13219;BMP180;6674;49.152;11.918;2023-04-06T04:22:18;96246.69;;;1.71
13219;BMP180;6674;49.152;11.918;2023-04-06T04:24:44;96250.31;;;1.68
13219;BMP180;6674;49.152;11.918;2023-04-06T04:27:11;96249.06;;;1.64
13219;BMP180;6674;49.152;11.918;2023-04-06T04:29:38;96250.00;;;1.63
13219;BMP180;6674;49.152;11.918;2023-04-06T04:32:06;96251.59;;;1.64
13219;BMP180;6674;49.152;11.918;2023-04-06T04:34:32;96245.53;;;1.65
13219;BMP180;6674;49.152;11.918;2023-04-06T04:36:59;96253.00;;;1.67
13219;BMP180;6674;49.152;11.918;2023-04-06T04:39:26;96244.75;;;1.65
13219;BMP180;6674;49.152;11.918;2023-04-06T04:41:52;96249.84;;;1.65
13219;BMP180;6674;49.152;11.918;2023-04-06T04:44:20;96252.53;;;1.63
13219;BMP180;6674;49.152;11.918;2023-04-06T04:46:46;96250.63;;;1.65
13219;BMP180;6674;49.152;11.918;2023-04-06T04:49:14;96256.00;;;1.62
13219;BMP180;6674;49.152;11.918;2023-04-06T04:51:41;96251.25;;;1.59
13219;BMP180;6674;49.152;11.918;2023-04-06T04:54:08;96249.66;;;1.58
13219;BMP180;6674;49.152;11.918;2023-04-06T04:56:34;96249.66;;;1.58
13219;BMP180;6674;49.152;11.918;2023-04-06T04:59:01;96250.59;;;1.57
13219;BMP180;6674;49.152;11.918;2023-04-06T05:01:27;96246.19;;;1.59
13219;BMP180;6674;49.152;11.918;2023-04-06T05:03:54;96252.03;;;1.60
13219;BMP180;6674;49.152;11.918;2023-04-06T05:06:22;96252.03;;;1.60
13219;BMP180;6674;49.152;11.918;2023-04-06T05:08:50;96247.25;;;1.57
13219;BMP180;6674;49.152;11.918;2023-04-06T05:11:17;96260.91;;;1.56
13219;BMP180;6674;49.152;11.918;2023-04-06T05:13:44;96252.66;;;1.54
13219;BMP180;6674;49.152;11.918;2023-04-06T05:16:10;96253.28;;;1.56
13219;BMP180;6674;49.152;11.918;2023-04-06T05:18:37;96249.66;;;1.58
13219;BMP180;6674;49.152;11.918;2023-04-06T05:21:04;96256.19;;;1.61
13219;BMP180;6674;49.152;11.918;2023-04-06T05:23:32;96255.22;;;1.62
13219;BMP180;6674;49.152;11.918;2023-04-06T05:25:59;96260.94;;;1.64
13219;BMP180;6674;49.152;11.918;2023-04-06T05:28:26;96258.88;;;1.67
13219;BMP180;6674;49.152;11.918;2023-04-06T05:30:52;96263.66;;;1.70
13219;BMP180;6674;49.152;11.918;2023-04-06T05:33:19;96254.94;;;1.72
13219;BMP180;6674;49.152;11.918;2023-04-06T05:35:46;96262.75;;;1.79
13219;BMP180;6674;49.152;11.918;2023-04-06T05:38:13;96265.47;;;1.85
13219;BMP180;6674;49.152;11.918;2023-04-06T05:40:41;96256.72;;;1.88
13219;BMP180;6674;49.152;11.918;2023-04-06T05:43:08;96261.50;;;1.91
13219;BMP180;6674;49.152;11.918;2023-04-06T05:45:34;96261.50;;;1.91
13219;BMP180;6674;49.152;11.918;2023-04-06T05:48:01;96263.91;;;1.92
13219;BMP180;6674;49.152;11.918;2023-04-06T05:50:28;96267.06;;;1.94
13219;BMP180;6674;49.152;11.918;2023-04-06T05:52:56;96266.28;;;1.94
13219;BMP180;6674;49.152;11.918;2023-04-06T05:55:23;96259.28;;;1.96
13219;BMP180;6674;49.152;11.918;2023-04-06T05:57:51;96262.16;;;2.01
13219;BMP180;6674;49.152;11.918;2023-04-06T06:00:18;96266.00;;;2.05
13219;BMP180;6674;49.152;11.918;2023-04-06T06:02:45;96268.72;;;2.11
13219;BMP180;6674;49.152;11.918;2023-04-06T06:05:11;96272.69;;;2.13
13219;BMP180;6674;49.152;11.918;2023-04-06T06:07:38;96269.19;;;2.14
13219;BMP180;6674;49.152;11.918;2023-04-06T06:10:06;96270.94;;;2.22
13219;BMP180;6674;49.152;11.918;2023-04-06T06:12:33;96271.75;;;2.22
13219;BMP180;6674;49.152;11.918;2023-04-06T06:15:01;96270.94;;;2.22
13219;BMP180;6674;49.152;11.918;2023-04-06T06:17:28;96278.09;;;2.18
13219;BMP180;6674;49.152;11.918;2023-04-06T06:19:55;96277.16;;;2.19
13219;BMP180;6674;49.152;11.918;2023-04-06T06:22:21;96279.25;;;2.24
13219;BMP180;6674;49.152;11.918;2023-04-06T06:24:48;96284.00;;;2.27
13219;BMP180;6674;49.152;11.918;2023-04-06T06:27:15;96286.38;;;2.28
13219;BMP180;6674;49.152;11.918;2023-04-06T06:29:42;96276.84;;;2.30
13219;BMP180;6674;49.152;11.918;2023-04-06T06:32:10;96286.06;;;2.31
13219;BMP180;6674;49.152;11.918;2023-04-06T06:34:37;96285.75;;;2.34
13219;BMP180;6674;49.152;11.918;2023-04-06T06:37:03;96289.72;;;2.37
13219;BMP180;6674;49.152;11.918;2023-04-06T06:39:30;96290.25;;;2.40
13219;BMP180;6674;49.152;11.918;2023-04-06T06:41:57;96285.13;;;2.48
13219;BMP180;6674;49.152;11.918;2023-04-06T06:44:25;96289.91;;;2.51
13219;BMP180;6674;49.152;11.918;2023-04-06T06:46:52;96283.41;;;2.49
13219;BMP180;6674;49.152;11.918;2023-04-06T06:49:20;96295.31;;;2.56
13219;BMP180;6674;49.152;11.918;2023-04-06T06:51:47;96294.84;;;2.60
13219;BMP180;6674;49.152;11.918;2023-04-06T06:54:13;96291.22;;;2.63
13219;BMP180;6674;49.152;11.918;2023-04-06T06:56:40;96291.69;;;2.66
13219;BMP180;6674;49.152;11.918;2023-04-06T06:59:07;96286.75;;;2.73
13219;BMP180;6674;49.152;11.918;2023-04-06T07:01:33;96286.56;;;2.82
13219;BMP180;6674;49.152;11.918;2023-04-06T07:04:00;96301.22;;;2.88
13219;BMP180;6674;49.152;11.918;2023-04-06T07:06:29;96289.56;;;2.94
13219;BMP180;6674;49.152;11.918;2023-04-06T07:08:55;96288.47;;;2.96
13219;BMP180;6674;49.152;11.918;2023-04-06T07:11:22;96299.59;;;3.03
13219;BMP180;6674;49.152;11.918;2023-04-06T07:13:49;96294.03;;;3.07
13219;BMP180;6674;49.152;11.918;2023-04-06T07:16:15;96292.72;;;3.11
13219;BMP180;6674;49.152;11.918;2023-04-06T07:18:42;96296.88;;;3.20
13219;BMP180;6674;49.152;11.918;2023-04-06T07:21:09;96298.63;;;3.28
13219;BMP180;6674;49.152;11.918;2023-04-06T07:23:37;96299.53;;;3.42
13219;BMP180;6674;49.152;11.918;2023-04-06T07:26:04;96302.06;;;3.50
13219;BMP180;6674;49.152;11.918;2023-04-06T07:28:31;96302.50;;;3.62
13219;BMP180;6674;49.152;11.918;2023-04-06T07:30:58;96301.66;;;3.69
13219;BMP180;6674;49.152;11.918;2023-04-06T07:33:24;96303.19;;;3.86
13219;BMP180;6674;49.152;11.918;2023-04-06T07:35:55;96306.50;;;4.02
13219;BMP180;6674;49.152;11.918;2023-04-06T07:38:22;96307.97;;;4.19
13219;BMP180;6674;49.152;11.918;2023-04-06T07:40:50;96303.91;;;4.32
13219;BMP180;6674;49.152;11.918;2023-04-06T07:43:16;96308.81;;;4.42
13219;BMP180;6674;49.152;11.918;2023-04-06T07:45:44;96304.09;;;4.53
13219;BMP180;6674;49.152;11.918;2023-04-06T07:48:11;96302.66;;;4.73
13219;BMP180;6674;49.152;11.918;2023-04-06T07:50:38;96298.63;;;4.78
13219;BMP180;6674;49.152;11.918;2023-04-06T07:53:04;96296.66;;;4.88
13219;BMP180;6674;49.152;11.918;2023-04-06T07:55:31;96298.31;;;4.96
13219;BMP180;6674;49.152;11.918;2023-04-06T07:57:59;96298.00;;;4.99
13219;BMP180;6674;49.152;11.918;2023-04-06T08:00:26;96293.53;;;5.15
13219;BMP180;6674;49.152;11.918;2023-04-06T08:02:53;96294.94;;;5.32
13219;BMP180;6674;49.152;11.918;2023-04-06T08:05:22;96294.59;;;5.35
13219;BMP180;6674;49.152;11.918;2023-04-06T08:07:49;96289.84;;;5.46
13219;BMP180;6674;49.152;11.918;2023-04-06T08:10:16;96294.28;;;5.66
13219;BMP180;6674;49.152;11.918;2023-04-06T08:12:43;96291.97;;;5.71
13219;BMP180;6674;49.152;11.918;2023-04-06T08:15:11;96299.22;;;5.82
13219;BMP180;6674;49.152;11.918;2023-04-06T08:17:39;96297.00;;;5.94
13219;BMP180;6674;49.152;11.918;2023-04-06T08:20:07;96299.19;;;6.11
13219;BMP180;6674;49.152;11.918;2023-04-06T08:22:34;96300.44;;;6.36
13219;BMP180;6674;49.152;11.918;2023-04-06T08:25:03;96297.50;;;6.39
13219;BMP180;6674;49.152;11.918;2023-04-06T08:27:31;96296.75;;;6.59
13219;BMP180;6674;49.152;11.918;2023-04-06T08:29:57;96299.88;;;6.75
13219;BMP180;6674;49.152;11.918;2023-04-06T08:32:26;96296.19;;;6.84
13219;BMP180;6674;49.152;11.918;2023-04-06T08:34:53;96290.81;;;7.00
13219;BMP180;6674;49.152;11.918;2023-04-06T08:37:20;96287.34;;;7.14
13219;BMP180;6674;49.152;11.918;2023-04-06T08:39:48;96295.19;;;7.33
13219;BMP180;6674;49.152;11.918;2023-04-06T08:42:19;96291.97;;;7.52
13219;BMP180;6674;49.152;11.918;2023-04-06T08:44:46;96285.28;;;7.57
13219;BMP180;6674;49.152;11.918;2023-04-06T08:47:13;96281.41;;;7.68
13219;BMP180;6674;49.152;11.918;2023-04-06T08:49:42;96281.72;;;7.92
13219;BMP180;6674;49.152;11.918;2023-04-06T08:52:10;96282.16;;;8.02
13219;BMP180;6674;49.152;11.918;2023-04-06T08:54:38;96284.72;;;8.02
13219;BMP180;6674;49.152;11.918;2023-04-06T08:57:05;96284.19;;;8.13
13219;BMP180;6674;49.152;11.918;2023-04-06T08:59:32;96282.44;;;8.19
13219;BMP180;6674;49.152;11.918;2023-04-06T09:02:00;96275.38;;;8.34
13219;BMP180;6674;49.152;11.918;2023-04-06T09:04:29;96281.34;;;8.48
13219;BMP180;6674;49.152;11.918;2023-04-06T09:06:58;96285.53;;;8.68
13219;BMP180;6674;49.152;11.918;2023-04-06T09:09:25;96273.28;;;8.83
13219;BMP180;6674;49.152;11.918;2023-04-06T09:11:52;96274.47;;;9.00
13219;BMP180;6674;49.152;11.918;2023-04-06T09:14:33;96277.25;;;9.17
13219;BMP180;6674;49.152;11.918;2023-04-06T09:17:00;96270.09;;;9.32
13219;BMP180;6674;49.152;11.918;2023-04-06T09:19:27;96275.22;;;9.51
13219;BMP180;6674;49.152;11.918;2023-04-06T09:22:03;96277.59;;;9.59
13219;BMP180;6674;49.152;11.918;2023-04-06T09:24:40;96273.00;;;9.68
13219;BMP180;6674;49.152;11.918;2023-04-06T09:27:07;96270.25;;;9.56
13219;BMP180;6674;49.152;11.918;2023-04-06T09:29:33;96264.91;;;9.58
13219;BMP180;6674;49.152;11.918;2023-04-06T09:32:03;96278.94;;;9.75
13219;BMP180;6674;49.152;11.918;2023-04-06T09:34:30;96272.41;;;9.79
13219;BMP180;6674;49.152;11.918;2023-04-06T09:36:58;96268.78;;;9.92
13219;BMP180;6674;49.152;11.918;2023-04-06T09:39:26;96275.91;;;10.03
13219;BMP180;6674;49.152;11.918;2023-04-06T09:41:53;96268.53;;;10.13
13219;BMP180;6674;49.152;11.918;2023-04-06T09:44:25;96268.97;;;10.41
13219;BMP180;6674;49.152;11.918;2023-04-06T09:46:53;96260.31;;;10.29
13219;BMP180;6674;49.152;11.918;2023-04-06T09:49:22;96269.38;;;10.38
13219;BMP180;6674;49.152;11.918;2023-04-06T09:51:56;96257.75;;;10.29
13219;BMP180;6674;49.152;11.918;2023-04-06T09:54:29;96259.09;;;10.32
13219;BMP180;6674;49.152;11.918;2023-04-06T09:57:02;96257.88;;;10.40
13219;BMP180;6674;49.152;11.918;2023-04-06T09:59:37;96255.03;;;10.55
13219;BMP180;6674;49.152;11.918;2023-04-06T10:02:08;96250.06;;;10.84
13219;BMP180;6674;49.152;11.918;2023-04-06T10:04:43;96249.38;;;11.19
13219;BMP180;6674;49.152;11.918;2023-04-06T10:07:10;96259.94;;;11.35
13219;BMP180;6674;49.152;11.918;2023-04-06T10:09:40;96245.25;;;11.60
13219;BMP180;6674;49.152;11.918;2023-04-06T10:12:10;96250.03;;;11.57
13219;BMP180;6674;49.152;11.918;2023-04-06T10:14:38;96249.81;;;11.94
13219;BMP180;6674;49.152;11.918;2023-04-06T10:17:06;96242.16;;;11.69
13219;BMP180;6674;49.152;11.918;2023-04-06T10:19:42;96234.25;;;11.82
13219;BMP180;6674;49.152;11.918;2023-04-06T10:22:34;96234.03;;;11.84
13219;BMP180;6674;49.152;11.918;2023-04-06T10:25:04;96233.97;;;11.72
13219;BMP180;6674;49.152;11.918;2023-04-06T10:27:32;96225.34;;;11.96
13219;BMP180;6674;49.152;11.918;2023-04-06T10:30:04;96229.19;;;12.23
13219;BMP180;6674;49.152;11.918;2023-04-06T10:32:35;96220.69;;;12.34
13219;BMP180;6674;49.152;11.918;2023-04-06T10:35:10;96220.59;;;12.11
13219;BMP180;6674;49.152;11.918;2023-04-06T10:37:50;96222.84;;;11.72
13219;BMP180;6674;49.152;11.918;2023-04-06T10:40:22;96213.44;;;11.60
13219;BMP180;6674;49.152;11.918;2023-04-06T10:42:50;96208.66;;;12.10
13219;BMP180;6674;49.152;11.918;2023-04-06T10:45:22;96202.63;;;12.45
13219;BMP180;6674;49.152;11.918;2023-04-06T10:47:52;96202.69;;;12.79
13219;BMP180;6674;49.152;11.918;2023-04-06T10:50:19;96204.50;;;12.79
13219;BMP180;6674;49.152;11.918;2023-04-06T10:52:58;96199.63;;;12.59
13219;BMP180;6674;49.152;11.918;2023-04-06T10:55:27;96209.66;;;12.27
13219;BMP180;6674;49.152;11.918;2023-04-06T10:57:54;96207.09;;;12.09
13219;BMP180;6674;49.152;11.918;2023-04-06T11:00:21;96209.84;;;11.96
13219;BMP180;6674;49.152;11.918;2023-04-06T11:02:48;96209.16;;;11.54
13219;BMP180;6674;49.152;11.918;2023-04-06T11:05:15;96214.75;;;11.68
13219;BMP180;6674;49.152;11.918;2023-04-06T11:07:44;96205.50;;;12.08
13219;BMP180;6674;49.152;11.918;2023-04-06T11:10:11;96191.06;;;12.48
13219;BMP180;6674;49.152;11.918;2023-04-06T11:12:41;96189.72;;;12.56
13219;BMP180;6674;49.152;11.918;2023-04-06T11:15:09;96189.63;;;12.63
13219;BMP180;6674;49.152;11.918;2023-04-06T11:17:37;96192.84;;;12.99
13219;BMP180;6674;49.152;11.918;2023-04-06T11:20:09;96189.34;;;12.82
13219;BMP180;6674;49.152;11.918;2023-04-06T11:22:50;96177.78;;;12.55
13219;BMP180;6674;49.152;11.918;2023-04-06T11:25:18;96180.44;;;13.01
13219;BMP180;6674;49.152;11.918;2023-04-06T11:27:47;96159.00;;;12.71
13219;BMP180;6674;49.152;11.918;2023-04-06T11:30:14;96179.16;;;12.69
13219;BMP180;6674;49.152;11.918;2023-04-06T11:32:42;96164.81;;;12.44
13219;BMP180;6674;49.152;11.918;2023-04-06T11:35:11;96176.44;;;11.95
13219;BMP180;6674;49.152;11.918;2023-04-06T11:37:43;96181.31;;;12.03
13219;BMP180;6674;49.152;11.918;2023-04-06T11:40:10;96174.38;;;12.44
13219;BMP180;6674;49.152;11.918;2023-04-06T11:42:37;96165.03;;;12.94
13219;BMP180;6674;49.152;11.918;2023-04-06T11:45:07;96165.38;;;13.21
13219;BMP180;6674;49.152;11.918;2023-04-06T11:47:36;96162.22;;;13.07
13219;BMP180;6674;49.152;11.918;2023-04-06T11:50:09;96159.38;;;13.32
13219;BMP180;6674;49.152;11.918;2023-04-06T11:52:36;96152.31;;;13.38
13219;BMP180;6674;49.152;11.918;2023-04-06T11:55:14;96152.97;;;13.84
13219;BMP180;6674;49.152;11.918;2023-04-06T11:57:42;96151.97;;;14.24
13219;BMP180;6674;49.152;11.918;2023-04-06T12:00:11;96149.66;;;14.00
13219;BMP180;6674;49.152;11.918;2023-04-06T12:02:38;96141.19;;;13.66
13219;BMP180;6674;49.152;11.918;2023-04-06T12:05:07;96140.28;;;14.11
13219;BMP180;6674;49.152;11.918;2023-04-06T12:07:34;96132.94;;;14.52
13219;BMP180;6674;49.152;11.918;2023-04-06T12:10:02;96133.38;;;14.32
13219;BMP180;6674;49.152;11.918;2023-04-06T12:12:30;96137.38;;;13.96
13219;BMP180;6674;49.152;11.918;2023-04-06T12:15:11;96135.69;;;13.90
13219;BMP180;6674;49.152;11.918;2023-04-06T12:17:38;96129.41;;;13.86
13219;BMP180;6674;49.152;11.918;2023-04-06T12:20:06;96127.28;;;13.83
13219;BMP180;6674;49.152;11.918;2023-04-06T12:22:34;96122.81;;;13.67
13219;BMP180;6674;49.152;11.918;2023-04-06T12:25:01;96121.78;;;13.79
13219;BMP180;6674;49.152;11.918;2023-04-06T12:27:28;96123.50;;;14.02
13219;BMP180;6674;49.152;11.918;2023-04-06T12:29:56;96127.16;;;13.89
13219;BMP180;6674;49.152;11.918;2023-04-06T12:32:24;96109.94;;;13.72
13219;BMP180;6674;49.152;11.918;2023-04-06T12:34:52;96117.06;;;13.65
13219;BMP180;6674;49.152;11.918;2023-04-06T12:37:19;96119.28;;;13.45
13219;BMP180;6674;49.152;11.918;2023-04-06T12:39:47;96119.75;;;12.74
13219;BMP180;6674;49.152;11.918;2023-04-06T12:42:14;96107.13;;;13.35
13219;BMP180;6674;49.152;11.918;2023-04-06T12:44:41;96114.47;;;13.65
13219;BMP180;6674;49.152;11.918;2023-04-06T12:47:10;96107.31;;;13.83
13219;BMP180;6674;49.152;11.918;2023-04-06T12:49:39;96113.25;;;14.07
13219;BMP180;6674;49.152;11.918;2023-04-06T12:52:06;96104.06;;;14.65
13219;BMP180;6674;49.152;11.918;2023-04-06T12:54:33;96103.53;;;14.79
13219;BMP180;6674;49.152;11.918;2023-04-06T12:57:00;96105.22;;;15.06
13219;BMP180;6674;49.152;11.918;2023-04-06T12:59:29;96099.78;;;14.70
13219;BMP180;6674;49.152;11.918;2023-04-06T13:02:01;96098.94;;;15.18
13219;BMP180;6674;49.152;11.918;2023-04-06T13:04:27;96088.69;;;15.28
13219;BMP180;6674;49.152;11.918;2023-04-06T13:06:56;96102.56;;;14.20
13219;BMP180;6674;49.152;11.918;2023-04-06T13:09:23;96102.38;;;14.37
13219;BMP180;6674;49.152;11.918;2023-04-06T13:11:55;96098.66;;;14.66
13219;BMP180;6674;49.152;11.918;2023-04-06T13:14:22;96086.84;;;14.75
13219;BMP180;6674;49.152;11.918;2023-04-06T13:16:49;96096.59;;;15.01
13219;BMP180;6674;49.152;11.918;2023-04-06T13:19:17;96102.09;;;15.20
13219;BMP180;6674;49.152;11.918;2023-04-06T13:21:46;96086.88;;;15.50
13219;BMP180;6674;49.152;11.918;2023-04-06T13:24:14;96083.72;;;15.69
13219;BMP180;6674;49.152;11.918;2023-04-06T13:26:41;96091.53;;;15.48
13219;BMP180;6674;49.152;11.918;2023-04-06T13:29:08;96084.22;;;15.45
13219;BMP180;6674;49.152;11.918;2023-04-06T13:31:36;96078.16;;;15.18
13219;BMP180;6674;49.152;11.918;2023-04-06T13:34:03;96093.72;;;15.02
13219;BMP180;6674;49.152;11.918;2023-04-06T13:36:30;96085.13;;;14.80
13219;BMP180;6674;49.152;11.918;2023-04-06T13:38:59;96084.91;;;15.03
13219;BMP180;6674;49.152;11.918;2023-04-06T13:41:29;96086.38;;;14.45
13219;BMP180;6674;49.152;11.918;2023-04-06T13:43:56;96072.38;;;14.79
13219;BMP180;6674;49.152;11.918;2023-04-06T13:46:24;96071.91;;;14.17
13219;BMP180;6674;49.152;11.918;2023-04-06T13:48:50;96074.28;;;14.51
13219;BMP180;6674;49.152;11.918;2023-04-06T13:51:18;96065.44;;;14.68
13219;BMP180;6674;49.152;11.918;2023-04-06T13:53:44;96066.63;;;15.14
13219;BMP180;6674;49.152;11.918;2023-04-06T13:56:11;96069.88;;;14.51
13219;BMP180;6674;49.152;11.918;2023-04-06T13:58:39;96068.44;;;14.93
13219;BMP180;6674;49.152;11.918;2023-04-06T14:01:07;96059.16;;;14.64
13219;BMP180;6674;49.152;11.918;2023-04-06T14:03:35;96064.63;;;15.00
13219;BMP180;6674;49.152;11.918;2023-04-06T14:06:10;96048.06;;;15.22
13219;BMP180;6674;49.152;11.918;2023-04-06T14:08:37;96050.75;;;15.53
13219;BMP180;6674;49.152;11.918;2023-04-06T14:11:04;96043.38;;;15.67
13219;BMP180;6674;49.152;11.918;2023-04-06T14:13:33;96040.31;;;16.01
13219;BMP180;6674;49.152;11.918;2023-04-06T14:16:02;96038.53;;;16.01
13219;BMP180;6674;49.152;11.918;2023-04-06T14:18:29;96042.25;;;16.10